Time;durP1;ratioP1;P1;durP2;ratioP2;P2;SDS_P1;SDS_P2;PMS_P1;PMS_P2;Temp;Humidity;BMP_temperature;BMP_pressure;BME280_temperature;BME280_humidity;BME280_pressure;Samples;Min_cycle;Max_cycle;Signal;HPM_P1;HPM_P2
2022/02/03 00:00:42;;;;;;;9.30;6.63;;;8.00;95.10;;;;;;5089652;28;20508;-73
2022/02/03 00:04:15;;;;;;;9.93;6.43;;;8.00;95.30;;;;;;5083812;28;20474;-72
2022/02/03 00:06:12;;;;;;;12.07;7.30;;;8.10;95.40;;;;;;5081876;28;20475;-72
2022/02/03 00:16:04;;;;;;;15.77;7.40;;;8.10;95.40;;;;;;5090479;28;20539;-72
2022/02/03 00:25:41;;;;;;;14.93;8.23;;;7.90;95.60;;;;;;5101832;28;20472;-71
2022/02/03 00:28:23;;;;;;;12.80;7.50;;;7.90;95.90;;;;;;5099149;28;20559;-72
2022/02/03 00:36:21;;;;;;;10.93;7.67;;;8.00;96.20;;;;;;5072112;28;20942;-72
2022/02/03 00:50:21;;;;;;;15.50;9.20;;;8.00;96.20;;;;;;5071701;28;21227;-73
2022/02/03 00:52:47;;;;;;;13.47;6.90;;;8.00;96.30;;;;;;5080112;28;20433;-71
2022/02/03 00:55:13;;;;;;;12.77;7.03;;;8.00;96.40;;;;;;5077829;28;20425;-73
2022/02/03 00:57:51;;;;;;;16.03;8.80;;;8.00;96.40;;;;;;5071439;28;20426;-72
2022/02/03 01:00:18;;;;;;;14.57;7.50;;;8.00;96.50;;;;;;5079357;28;20200;-73
2022/02/03 01:02:48;;;;;;;10.83;6.83;;;8.00;96.50;;;;;;5078470;28;20495;-71
2022/02/03 01:05:15;;;;;;;12.30;7.23;;;8.00;96.60;;;;;;5071474;28;20433;-72
2022/02/03 01:07:46;;;;;;;11.10;6.80;;;8.00;96.60;;;;;;5060386;28;20437;-72
2022/02/03 01:10:20;;;;;;;15.67;8.17;;;8.00;96.50;;;;;;5073061;28;20418;-73
2022/02/03 01:15:28;;;;;;;14.47;8.80;;;8.10;96.50;;;;;;5108541;28;20435;-73
2022/02/03 01:18:37;;;;;;;12.80;8.17;;;8.00;96.50;;;;;;5097946;28;20432;-73
2022/02/03 01:45:22;;;;;;;13.43;7.60;;;8.10;97.00;;;;;;5094754;28;20452;-72
2022/02/03 01:53:22;;;;;;;13.23;7.73;;;8.20;96.90;;;;;;5096107;28;20515;-72
2022/02/03 01:55:59;;;;;;;13.63;7.20;;;8.20;96.70;;;;;;5091945;28;20531;-73
2022/02/03 01:58:33;;;;;;;11.50;6.13;;;8.10;96.60;;;;;;5092929;28;20217;-72
2022/02/03 02:01:02;;;;;;;13.90;7.83;;;8.10;96.60;;;;;;5093285;28;20449;-73
2022/02/03 02:04:03;;;;;;;13.57;7.20;;;8.20;96.70;;;;;;5097410;28;20447;-72
2022/02/03 02:06:48;;;;;;;13.07;7.30;;;8.20;96.70;;;;;;5093162;28;20424;-73
2022/02/03 02:09:45;;;;;;;14.47;7.70;;;8.20;96.70;;;;;;5087473;28;20465;-72
2022/02/03 02:12:42;;;;;;;12.90;7.00;;;8.20;96.70;;;;;;5093130;28;20919;-73
2022/02/03 02:15:51;;;;;;;11.63;7.03;;;8.20;96.50;;;;;;5093304;28;20425;-74
2022/02/03 02:43:21;;;;;;;11.63;6.90;;;8.00;97.30;;;;;;5081850;28;20490;-73
2022/02/03 02:45:56;;;;;;;11.13;7.00;;;8.00;97.20;;;;;;5092470;28;20449;-73
2022/02/03 02:48:32;;;;;;;15.00;7.70;;;8.10;97.10;;;;;;5092829;28;20468;-72
2022/02/03 02:51:26;;;;;;;13.40;7.70;;;8.00;97.00;;;;;;5091776;28;20433;-72
2022/02/03 02:56:55;;;;;;;11.30;6.40;;;8.00;97.10;;;;;;5092729;28;20452;-72
2022/02/03 03:36:17;;;;;;;8.40;4.60;;;8.20;96.40;;;;;;5099321;28;20417;-72
2022/02/03 03:38:35;;;;;;;7.00;4.50;;;8.20;96.20;;;;;;5096918;28;20433;-71
2022/02/03 03:41:02;;;;;;;11.03;5.60;;;8.30;96.00;;;;;;5103638;28;20417;-71
2022/02/03 03:43:31;;;;;;;9.13;5.10;;;8.30;95.70;;;;;;5103449;28;20424;-71
2022/02/03 03:46:06;;;;;;;10.23;6.00;;;8.20;95.50;;;;;;5104527;28;20460;-72
2022/02/03 03:48:54;;;;;;;8.10;5.20;;;8.10;95.60;;;;;;5096057;28;20510;-70
2022/02/03 03:51:28;;;;;;;10.57;5.80;;;8.10;95.60;;;;;;5086877;28;20405;-73
2022/02/03 03:54:04;;;;;;;12.20;5.80;;;8.00;95.60;;;;;;5086869;28;20522;-72
2022/02/03 03:56:51;;;;;;;12.80;5.20;;;8.00;95.70;;;;;;5090233;28;20425;-73
2022/02/03 04:29:11;;;;;;;12.80;7.20;;;7.60;96.40;;;;;;5092562;28;20511;-73
2022/02/03 04:37:49;;;;;;;12.43;7.13;;;7.60;96.80;;;;;;5085298;28;20930;-71
2022/02/03 04:44:07;;;;;;;12.03;6.20;;;7.60;97.00;;;;;;5090476;28;20416;-71
2022/02/03 04:56:47;;;;;;;8.77;5.30;;;7.80;96.20;;;;;;5097661;28;20474;-72
2022/02/03 05:02:37;;;;;;;10.67;5.77;;;7.90;95.80;;;;;;5092793;28;20504;-72
2022/02/03 05:33:10;;;;;;;13.63;6.97;;;7.90;95.50;;;;;;5086480;28;20425;-73
2022/02/03 05:45:07;;;;;;;14.57;6.93;;;7.70;95.60;;;;;;5007770;28;20418;-71
2022/02/03 06:04:09;;;;;;;12.00;6.67;;;7.60;96.10;;;;;;5092898;28;20486;-71
2022/02/03 06:14:30;;;;;;;13.67;8.20;;;7.50;95.90;;;;;;5092518;28;20754;-72
2022/02/03 06:24:51;;;;;;;12.43;6.93;;;7.40;96.40;;;;;;5092953;28;20431;-72
2022/02/03 06:27:37;;;;;;;13.90;7.33;;;7.50;96.50;;;;;;5093294;28;20421;-73
2022/02/03 06:30:05;;;;;;;13.67;6.87;;;7.50;96.40;;;;;;5092072;28;20480;-71
2022/02/03 06:32:31;;;;;;;9.87;6.70;;;7.50;96.30;;;;;;5092186;28;20421;-70
2022/02/03 06:34:57;;;;;;;11.07;7.00;;;7.50;96.30;;;;;;5091654;28;20460;-71
2022/02/03 06:37:23;;;;;;;12.80;7.20;;;7.50;96.30;;;;;;5096613;28;20421;-72
2022/02/03 06:39:50;;;;;;;13.40;7.53;;;7.50;96.30;;;;;;5100273;28;20199;-72
2022/02/03 06:42:16;;;;;;;9.00;6.40;;;7.50;96.20;;;;;;5094756;28;20778;-71
2022/02/03 06:44:46;;;;;;;11.03;6.33;;;7.50;96.20;;;;;;5092255;28;20432;-71
2022/02/03 06:52:12;;;;;;;15.90;7.30;;;7.50;96.10;;;;;;5093884;28;20422;-72
2022/02/03 06:55:25;;;;;;;12.60;7.27;;;7.60;96.10;;;;;;5093206;28;20453;-72
2022/02/03 06:57:33;;;;;;;9.30;6.13;;;7.60;96.00;;;;;;5089464;28;21267;-73
2022/02/03 07:00:04;;;;;;;11.57;7.30;;;7.60;96.00;;;;;;5086649;28;20444;-71
2022/02/03 07:02:35;;;;;;;11.20;6.43;;;7.70;95.90;;;;;;5092876;28;20475;-74
2022/02/03 07:05:01;;;;;;;14.63;7.20;;;7.70;95.80;;;;;;5090395;28;20487;-71
2022/02/03 07:07:26;;;;;;;11.00;6.80;;;7.70;95.70;;;;;;5091999;28;21247;-71
2022/02/03 07:09:53;;;;;;;13.90;7.17;;;7.70;95.50;;;;;;5092457;28;20203;-71
2022/02/03 07:12:21;;;;;;;13.93;7.07;;;7.70;95.30;;;;;;5093431;28;20464;-72
2022/02/03 07:14:47;;;;;;;12.30;7.53;;;7.80;95.30;;;;;;5091573;28;20452;-72
2022/02/03 07:17:13;;;;;;;9.80;5.40;;;7.70;95.30;;;;;;5092287;28;20406;-71
2022/02/03 07:19:49;;;;;;;15.50;7.37;;;7.80;95.30;;;;;;5092872;28;20685;-73
2022/02/03 07:22:16;;;;;;;14.17;7.13;;;7.80;95.30;;;;;;5093242;28;20413;-71
2022/02/03 07:24:42;;;;;;;12.80;7.27;;;7.80;95.20;;;;;;5092871;28;20433;-72
2022/02/03 07:27:07;;;;;;;14.10;7.20;;;7.80;95.20;;;;;;5091886;28;21378;-71
2022/02/03 07:29:33;;;;;;;13.83;7.13;;;7.80;95.20;;;;;;5092300;28;20202;-72
2022/02/03 07:32:01;;;;;;;19.23;8.30;;;7.80;95.20;;;;;;5091546;28;20171;-72
2022/02/03 07:34:27;;;;;;;13.67;7.47;;;7.80;95.20;;;;;;5092061;28;20183;-72
2022/02/03 07:36:53;;;;;;;17.17;7.73;;;7.90;95.30;;;;;;5083233;28;20447;-72
2022/02/03 07:39:18;;;;;;;13.30;7.43;;;7.90;95.20;;;;;;5091552;28;20626;-72
2022/02/03 07:41:44;;;;;;;17.07;7.67;;;7.90;95.20;;;;;;5093700;28;20264;-73
2022/02/03 07:44:14;;;;;;;12.20;7.20;;;7.90;95.20;;;;;;5092494;28;20179;-72
2022/02/03 07:46:39;;;;;;;11.90;7.27;;;7.90;95.00;;;;;;5091493;28;20214;-72
2022/02/03 07:49:05;;;;;;;19.33;8.33;;;8.00;95.00;;;;;;5091155;28;20928;-71
2022/02/03 07:51:31;;;;;;;13.97;7.47;;;7.90;95.00;;;;;;5093066;28;20189;-72
2022/02/03 07:53:56;;;;;;;12.53;7.33;;;8.00;95.00;;;;;;5093513;28;20179;-70
2022/02/03 07:56:22;;;;;;;12.50;7.17;;;8.00;95.00;;;;;;5093998;28;20186;-72
2022/02/03 07:58:48;;;;;;;14.07;7.83;;;8.10;94.90;;;;;;5094865;28;20635;-73
2022/02/03 08:01:14;;;;;;;16.50;7.37;;;8.10;95.00;;;;;;5093701;28;20262;-72
2022/02/03 08:03:44;;;;;;;14.70;7.03;;;8.20;94.90;;;;;;5091189;28;20194;-73
2022/02/03 08:06:17;;;;;;;12.00;6.50;;;8.30;94.60;;;;;;5091164;28;20410;-72
2022/02/03 08:08:48;;;;;;;9.60;5.90;;;8.30;94.40;;;;;;5089800;28;20899;-71
2022/02/03 08:11:20;;;;;;;11.40;5.83;;;8.30;94.10;;;;;;5090861;28;20418;-73
2022/02/03 08:16:42;;;;;;;18.80;6.90;;;8.40;93.50;;;;;;5091158;28;20420;-72
2022/02/03 08:19:20;;;;;;;10.20;5.50;;;8.50;93.40;;;;;;5089843;28;20448;-71
2022/02/03 08:21:55;;;;;;;8.23;5.47;;;8.50;93.40;;;;;;5090927;28;20496;-73
2022/02/03 08:24:42;;;;;;;7.73;4.63;;;8.70;93.10;;;;;;5089839;28;20441;-72
2022/02/03 08:27:24;;;;;;;8.53;4.17;;;8.80;92.70;;;;;;5087872;28;20830;-71
2022/02/03 08:32:37;;;;;;;9.10;5.03;;;8.90;91.80;;;;;;5090134;28;20420;-70
2022/02/03 08:40:14;;;;;;;10.57;5.83;;;9.00;91.50;;;;;;5089911;28;20617;-71
2022/02/03 08:42:40;;;;;;;8.17;5.60;;;9.20;91.50;;;;;;5092310;28;20417;-71
2022/02/03 08:45:06;;;;;;;9.90;4.63;;;9.40;91.60;;;;;;5094450;28;20465;-73
2022/02/03 08:47:32;;;;;;;7.27;4.93;;;9.50;91.30;;;;;;5094146;28;20413;-70
2022/02/03 08:49:58;;;;;;;7.13;4.53;;;9.60;90.30;;;;;;5092681;28;20461;-71
2022/02/03 08:52:34;;;;;;;6.37;4.70;;;9.70;89.90;;;;;;5094892;28;20410;-72
2022/02/03 08:55:11;;;;;;;4.80;3.37;;;9.80;89.60;;;;;;5089661;28;20539;-71
2022/02/03 08:58:03;;;;;;;7.47;4.63;;;9.80;88.40;;;;;;5094247;28;20835;-70
2022/02/03 09:32:21;;;;;;;7.83;4.57;;;9.70;87.30;;;;;;5089467;28;20405;-72
2022/02/03 09:59:53;;;;;;;3.47;2.27;;;9.70;86.90;;;;;;5089644;28;20432;-70
2022/02/03 10:02:23;;;;;;;4.10;2.70;;;9.60;86.60;;;;;;5093085;28;20484;-70
2022/02/03 10:07:20;;;;;;;2.93;2.77;;;9.50;86.90;;;;;;5092478;28;20420;-72
2022/02/03 10:09:49;;;;;;;5.50;2.83;;;9.50;86.60;;;;;;5091170;28;20487;-71
2022/02/03 10:12:15;;;;;;;4.30;2.93;;;9.60;86.80;;;;;;5092438;28;20456;-72
2022/02/03 10:14:44;;;;;;;4.67;3.10;;;9.60;86.60;;;;;;5092579;28;20413;-71
2022/02/03 10:17:10;;;;;;;4.23;2.70;;;9.60;86.50;;;;;;5091064;28;20851;-73
2022/02/03 10:19:40;;;;;;;4.97;2.87;;;9.60;85.90;;;;;;5091104;28;20445;-71
2022/02/03 10:22:24;;;;;;;3.90;2.50;;;9.70;85.90;;;;;;5085762;28;20867;-71
2022/02/03 10:24:52;;;;;;;4.00;2.37;;;9.80;85.90;;;;;;5092048;28;20421;-72
2022/02/03 10:27:28;;;;;;;3.43;2.50;;;10.00;85.30;;;;;;5086538;28;20429;-71
2022/02/03 10:30:07;;;;;;;3.43;2.43;;;10.10;84.30;;;;;;5091970;28;20490;-70
2022/02/03 10:32:38;;;;;;;2.73;2.17;;;10.00;83.10;;;;;;5092469;28;20417;-70
2022/02/03 10:35:22;;;;;;;4.30;2.40;;;10.00;83.40;;;;;;5085488;28;20539;-72
2022/02/03 10:38:17;;;;;;;3.20;2.43;;;10.00;83.00;;;;;;5092311;28;20800;-73
2022/02/03 10:57:20;;;;;;;2.40;1.87;;;10.40;80.80;;;;;;5091681;28;20466;-74
2022/02/03 11:07:56;;;;;;;2.90;2.00;;;11.20;79.30;;;;;;5088795;28;20595;-71
2022/02/03 11:10:32;;;;;;;2.47;2.00;;;11.20;77.80;;;;;;5090809;28;20553;-71
2022/02/03 11:12:58;;;;;;;2.03;1.43;;;11.20;78.40;;;;;;5083319;28;20440;-71
2022/02/03 11:15:26;;;;;;;2.17;1.80;;;11.30;78.90;;;;;;5090647;28;20422;-71
2022/02/03 11:17:55;;;;;;;2.43;1.57;;;11.40;77.80;;;;;;5092035;28;20915;-71
2022/02/03 11:20:24;;;;;;;3.27;1.80;;;11.40;77.70;;;;;;5091719;28;20433;-73
2022/02/03 11:23:09;;;;;;;2.43;1.80;;;11.40;77.60;;;;;;5090869;28;20874;-72
2022/02/03 11:25:54;;;;;;;3.17;2.00;;;11.30;77.70;;;;;;5088878;28;20436;-73
2022/02/03 11:53:29;;;;;;;4.40;2.37;;;11.20;79.20;;;;;;5099400;28;21037;-69
2022/02/03 12:07:08;;;;;;;3.93;2.50;;;11.20;79.20;;;;;;5095358;28;20996;-74
2022/02/03 12:20:21;;;;;;;7.40;5.27;;;11.60;78.00;;;;;;5031287;28;20535;-70
2022/02/03 12:23:08;;;;;;;3.80;2.97;;;11.50;77.80;;;;;;5033425;28;20514;-72
2022/02/03 12:26:02;;;;;;;4.20;2.60;;;11.50;78.30;;;;;;5032025;28;20438;-72
2022/02/03 12:31:38;;;;;;;3.63;2.50;;;11.70;78.90;;;;;;5033525;28;20467;-71
2022/02/03 12:39:43;;;;;;;2.10;1.80;;;11.70;77.00;;;;;;5025030;28;20937;-70
2022/02/03 12:42:21;;;;;;;2.20;1.90;;;11.70;76.70;;;;;;5028843;28;20489;-70
2022/02/03 12:44:50;;;;;;;3.20;1.97;;;11.50;77.00;;;;;;5030543;28;20451;-70
2022/02/03 12:47:16;;;;;;;2.93;1.77;;;11.50;77.10;;;;;;5092294;28;20445;-72
2022/02/03 12:49:42;;;;;;;3.27;2.50;;;11.60;76.80;;;;;;5096778;28;20508;-70
2022/02/03 12:52:27;;;;;;;2.93;2.23;;;11.50;77.60;;;;;;5097145;28;21366;-71
2022/02/03 12:54:53;;;;;;;2.60;1.87;;;11.60;77.10;;;;;;5096962;28;20179;-70
2022/02/03 12:57:33;;;;;;;3.00;2.17;;;11.60;76.70;;;;;;5097449;28;20911;-71
2022/02/03 13:00:12;;;;;;;5.27;1.90;;;11.50;76.80;;;;;;5095393;28;20459;-70
2022/02/03 13:02:38;;;;;;;5.40;2.20;;;11.40;77.10;;;;;;5093594;28;20420;-70
2022/02/03 13:05:04;;;;;;;3.30;2.20;;;11.40;77.10;;;;;;5097298;28;20424;-70
2022/02/03 13:07:30;;;;;;;6.30;2.10;;;11.40;77.30;;;;;;5095504;28;20417;-73
2022/02/03 13:10:09;;;;;;;2.97;2.10;;;11.40;77.40;;;;;;5097323;28;20845;-71
2022/02/03 13:12:39;;;;;;;3.10;1.90;;;11.50;77.30;;;;;;5094438;28;20413;-73
2022/02/03 13:15:07;;;;;;;3.53;2.00;;;11.40;77.00;;;;;;5097031;28;20414;-71
2022/02/03 13:17:37;;;;;;;3.20;1.50;;;11.40;77.60;;;;;;5097697;28;20496;-73
2022/02/03 13:20:20;;;;;;;2.60;1.73;;;11.30;77.80;;;;;;5097413;28;20451;-73
2022/02/03 13:22:53;;;;;;;4.60;2.10;;;11.30;77.80;;;;;;5096475;28;20818;-72
2022/02/03 13:25:27;;;;;;;3.47;2.00;;;11.20;78.40;;;;;;5093787;28;20764;-72
2022/02/03 13:28:09;;;;;;;1.90;1.67;;;11.10;79.00;;;;;;5096449;28;20439;-70
2022/02/03 13:33:11;;;;;;;4.17;1.80;;;11.20;79.20;;;;;;5094424;28;20413;-73
2022/02/03 13:35:52;;;;;;;2.90;1.67;;;11.10;79.50;;;;;;5095002;28;20900;-72
2022/02/03 13:38:32;;;;;;;3.53;1.90;;;11.10;79.60;;;;;;5091815;28;20424;-73
2022/02/03 13:41:07;;;;;;;1.90;1.60;;;11.00;79.60;;;;;;5091486;28;20418;-74
2022/02/03 13:43:38;;;;;;;2.17;1.57;;;11.10;79.90;;;;;;5092738;28;20416;-74
2022/02/03 13:46:05;;;;;;;3.27;1.90;;;11.00;80.00;;;;;;5093001;28;20441;-73
2022/02/03 13:48:31;;;;;;;3.93;2.00;;;11.10;79.90;;;;;;5096090;28;21002;-73
2022/02/03 13:51:01;;;;;;;4.13;2.00;;;11.20;79.70;;;;;;5095179;28;20533;-73
2022/02/03 13:53:35;;;;;;;2.70;2.00;;;11.30;79.00;;;;;;5096001;28;20417;-74
2022/02/03 14:13:36;;;;;;;4.63;1.97;;;11.60;78.30;;;;;;5092822;28;20792;-74
2022/02/03 14:16:15;;;;;;;3.97;2.47;;;11.70;78.10;;;;;;5092435;28;20457;-73
2022/02/03 14:19:12;;;;;;;2.73;1.80;;;11.70;78.40;;;;;;5092337;28;20437;-74
2022/02/03 14:21:43;;;;;;;7.03;3.33;;;11.70;78.00;;;;;;5092500;28;20432;-72
2022/02/03 14:27:20;;;;;;;6.17;2.40;;;11.60;78.30;;;;;;5090684;28;20424;-74
2022/02/03 14:29:49;;;;;;;4.50;2.40;;;11.60;78.90;;;;;;5092444;28;20469;-74
2022/02/03 14:32:20;;;;;;;3.63;2.37;;;11.70;78.60;;;;;;5093543;28;20984;-73
2022/02/03 14:34:48;;;;;;;2.47;1.90;;;11.60;78.40;;;;;;5102055;28;20816;-74
2022/02/03 14:37:26;;;;;;;5.90;3.30;;;11.60;78.60;;;;;;5096035;28;20471;-73
2022/02/03 14:42:38;;;;;;;4.87;2.33;;;11.40;79.50;;;;;;5092599;28;20444;-74
2022/02/03 14:45:06;;;;;;;17.93;4.07;;;11.20;80.20;;;;;;5092654;28;20498;-74
2022/02/03 14:47:33;;;;;;;4.93;2.57;;;11.20;80.60;;;;;;5094953;28;20413;-72
2022/02/03 14:50:01;;;;;;;9.43;2.83;;;11.10;80.80;;;;;;5105329;28;20465;-74
2022/02/03 14:52:32;;;;;;;8.00;2.80;;;11.00;81.40;;;;;;5106979;28;20449;-74
2022/02/03 15:00:27;;;;;;;3.43;2.13;;;10.90;82.50;;;;;;5103141;28;20474;-71
2022/02/03 15:02:53;;;;;;;3.00;2.30;;;10.90;82.40;;;;;;5100459;28;20422;-73
2022/02/03 15:05:34;;;;;;;5.27;2.30;;;10.90;82.70;;;;;;5098498;28;20486;-72
2022/02/03 15:08:06;;;;;;;3.97;2.73;;;10.90;82.80;;;;;;5096194;28;20425;-74
2022/02/03 15:10:45;;;;;;;3.50;2.40;;;10.80;83.10;;;;;;5098858;28;20495;-72
2022/02/03 15:13:30;;;;;;;4.67;3.00;;;10.80;83.10;;;;;;5092411;28;20476;-74
2022/02/03 15:15:57;;;;;;;5.00;3.03;;;10.70;83.40;;;;;;5091255;28;20421;-72
2022/02/03 15:18:23;;;;;;;5.67;2.90;;;10.70;83.70;;;;;;5091603;28;20465;-74
2022/02/03 15:20:48;;;;;;;4.63;3.07;;;10.70;83.70;;;;;;5090853;28;20870;-71
2022/02/03 15:23:14;;;;;;;5.23;2.93;;;10.70;83.80;;;;;;5091533;28;20187;-72
2022/02/03 15:25:40;;;;;;;7.83;2.83;;;10.70;84.00;;;;;;5090752;28;20649;-73
2022/02/03 15:28:07;;;;;;;4.17;2.50;;;10.60;84.30;;;;;;5091116;28;20202;-74
2022/02/03 15:30:32;;;;;;;6.13;3.50;;;10.60;84.60;;;;;;5091107;28;20207;-73
2022/02/03 15:32:58;;;;;;;5.37;3.47;;;10.60;84.90;;;;;;5091093;28;20424;-72
2022/02/03 15:35:34;;;;;;;4.70;2.80;;;10.60;84.90;;;;;;5090831;28;20222;-74
2022/02/03 15:38:06;;;;;;;4.17;2.60;;;10.60;84.90;;;;;;5090840;28;20266;-74
2022/02/03 15:40:35;;;;;;;4.60;2.83;;;10.50;84.90;;;;;;5089454;28;20516;-72
2022/02/03 15:43:07;;;;;;;5.50;3.17;;;10.50;85.30;;;;;;5092223;28;20433;-73
2022/02/03 15:45:39;;;;;;;3.50;2.67;;;10.50;85.20;;;;;;5093576;28;20449;-73
2022/02/03 15:48:26;;;;;;;3.17;2.40;;;10.50;85.20;;;;;;5088267;28;20436;-73
2022/02/03 16:17:32;;;;;;;7.13;3.57;;;10.30;86.50;;;;;;5089535;28;20473;-73
2022/02/03 16:20:07;;;;;;;6.00;3.43;;;10.30;86.80;;;;;;5088120;28;21120;-72
2022/02/03 16:54:50;;;;;;;7.07;3.90;;;9.90;87.00;;;;;;5089800;28;20448;-73
2022/02/03 16:57:20;;;;;;;7.60;3.77;;;9.80;87.30;;;;;;5090958;28;20880;-72
2022/02/03 16:59:56;;;;;;;5.33;3.70;;;9.90;87.40;;;;;;5089427;28;20935;-72
2022/02/03 17:02:24;;;;;;;9.07;4.20;;;9.90;87.40;;;;;;5086345;28;20478;-71
2022/02/03 17:04:56;;;;;;;10.53;4.40;;;9.80;87.40;;;;;;5091359;28;20835;-72
2022/02/03 17:07:21;;;;;;;8.70;4.00;;;9.80;87.40;;;;;;5089558;28;20420;-72
2022/02/03 17:09:49;;;;;;;5.87;3.90;;;9.70;87.40;;;;;;5089034;28;20539;-69
2022/02/03 17:12:19;;;;;;;7.47;4.10;;;9.70;87.60;;;;;;5091557;28;20199;-70
2022/02/03 17:14:45;;;;;;;6.40;4.30;;;9.70;87.70;;;;;;5090424;28;20425;-72
2022/02/03 17:17:12;;;;;;;7.30;4.13;;;9.60;87.70;;;;;;5091772;28;21206;-69
2022/02/03 17:19:38;;;;;;;7.73;3.70;;;9.60;87.60;;;;;;5089577;28;21178;-71
2022/02/03 17:22:05;;;;;;;5.27;3.90;;;9.60;87.70;;;;;;5084269;28;20935;-69
2022/02/03 17:24:34;;;;;;;6.40;3.80;;;9.60;87.70;;;;;;5090953;28;20445;-70
2022/02/03 17:27:23;;;;;;;6.70;4.30;;;9.60;87.80;;;;;;5091015;28;20463;-72
2022/02/03 17:30:02;;;;;;;7.80;4.87;;;9.60;88.00;;;;;;5089275;28;20473;-69
2022/02/03 17:55:17;;;;;;;12.00;5.10;;;9.50;88.40;;;;;;5086537;28;20407;-74
2022/02/03 18:10:25;;;;;;;8.07;3.83;;;9.40;89.00;;;;;;5088768;28;20464;-74
2022/02/03 18:55:28;;;;;;;7.60;5.80;;;8.90;91.30;;;;;;5090371;28;20958;-73
2022/02/03 19:00:29;;;;;;;12.80;8.37;;;9.00;91.30;;;;;;5092380;28;20470;-73
2022/02/03 19:03:08;;;;;;;14.00;6.30;;;8.90;91.30;;;;;;5081914;28;20265;-75
2022/02/03 20:12:16;;;;;;;16.60;10.80;;;7.50;93.80;;;;;;5087324;28;20275;-74
2022/02/03 20:14:41;;;;;;;15.93;9.97;;;7.50;94.10;;;;;;5087857;28;20548;-74
2022/02/03 20:17:07;;;;;;;16.93;10.97;;;7.40;94.30;;;;;;5088137;28;20279;-73
2022/02/03 20:19:35;;;;;;;20.03;11.13;;;7.40;94.60;;;;;;5088352;28;20612;-71
2022/02/03 20:22:01;;;;;;;19.53;10.40;;;7.40;94.70;;;;;;5088308;28;20171;-73
2022/02/03 20:24:27;;;;;;;15.60;10.37;;;7.40;94.50;;;;;;5087595;28;20773;-71
2022/02/03 20:26:52;;;;;;;19.97;11.60;;;7.40;94.50;;;;;;5087516;28;20421;-74
2022/02/03 20:29:18;;;;;;;24.90;13.20;;;7.30;94.50;;;;;;5088022;28;20905;-73
2022/02/03 20:31:44;;;;;;;19.63;11.47;;;7.30;94.70;;;;;;5087509;28;20179;-73
2022/02/03 20:34:10;;;;;;;16.77;10.43;;;7.40;94.70;;;;;;5087368;28;20175;-73
2022/02/03 20:36:36;;;;;;;19.27;11.00;;;7.40;94.80;;;;;;5085992;28;20477;-72
2022/02/03 20:39:03;;;;;;;12.77;9.67;;;7.40;94.70;;;;;;5090487;28;20198;-73
2022/02/03 20:41:29;;;;;;;19.97;10.70;;;7.40;94.70;;;;;;5094297;28;21106;-74
2022/02/03 20:43:55;;;;;;;19.90;11.20;;;7.40;94.70;;;;;;5092505;28;20429;-73
2022/02/03 20:46:22;;;;;;;22.80;11.83;;;7.40;94.70;;;;;;5092712;28;20206;-72
2022/02/03 20:48:49;;;;;;;22.40;13.17;;;7.40;94.60;;;;;;5094038;28;20472;-71
2022/02/03 20:51:20;;;;;;;24.00;13.77;;;7.40;94.60;;;;;;5094191;28;20992;-71
2022/02/03 20:53:47;;;;;;;25.10;14.10;;;7.40;94.30;;;;;;5091717;28;20413;-72
2022/02/03 20:56:17;;;;;;;24.40;14.40;;;7.30;94.30;;;;;;5090679;28;20507;-72
2022/02/03 20:58:44;;;;;;;22.37;13.13;;;7.30;94.50;;;;;;5089622;28;21040;-73
2022/02/03 21:01:17;;;;;;;17.40;11.10;;;7.20;94.70;;;;;;5090724;28;20794;-72
2022/02/03 21:03:46;;;;;;;24.63;13.37;;;7.20;94.80;;;;;;5083932;28;20453;-74
2022/02/03 21:06:14;;;;;;;16.80;11.00;;;7.20;94.90;;;;;;5090303;28;20416;-74
2022/02/03 21:08:44;;;;;;;17.53;11.17;;;7.20;94.80;;;;;;5087455;28;20441;-74
2022/02/03 21:11:09;;;;;;;17.60;9.97;;;7.30;94.80;;;;;;5091018;28;20445;-73
2022/02/03 21:13:35;;;;;;;18.17;11.73;;;7.20;94.60;;;;;;5092558;28;20471;-73
2022/02/03 21:16:05;;;;;;;21.37;12.80;;;7.20;94.60;;;;;;5094314;28;20175;-72
2022/02/03 21:18:33;;;;;;;16.23;10.67;;;7.10;94.60;;;;;;5098762;28;20467;-73
2022/02/03 21:20:59;;;;;;;17.73;10.90;;;7.10;94.90;;;;;;5100190;28;20413;-72
2022/02/03 21:23:25;;;;;;;17.40;10.33;;;7.10;95.10;;;;;;5101579;28;20512;-72
2022/02/03 21:25:56;;;;;;;19.97;12.97;;;7.10;95.10;;;;;;5098770;28;20197;-72
2022/02/03 21:28:29;;;;;;;26.53;13.27;;;7.10;94.90;;;;;;5097493;28;20206;-71
2022/02/03 21:30:56;;;;;;;18.63;11.00;;;7.00;95.10;;;;;;5090699;28;20915;-73
2022/02/03 21:33:45;;;;;;;18.90;11.30;;;7.00;95.20;;;;;;5094966;28;20407;-74
2022/02/03 21:36:12;;;;;;;17.90;10.83;;;7.00;95.30;;;;;;5091470;28;20409;-72
2022/02/03 21:38:41;;;;;;;20.90;10.93;;;6.90;95.40;;;;;;5088571;28;20448;-75
2022/02/03 21:41:11;;;;;;;19.30;10.27;;;6.90;95.30;;;;;;5093202;28;20815;-72
2022/02/03 21:43:37;;;;;;;18.37;11.73;;;6.90;95.40;;;;;;5089451;28;20409;-71
2022/02/03 21:46:03;;;;;;;22.57;11.63;;;7.00;95.30;;;;;;5089662;28;20447;-74
2022/02/03 21:48:29;;;;;;;22.00;12.13;;;7.00;95.40;;;;;;5089612;28;20249;-74
2022/02/03 21:50:55;;;;;;;20.40;11.37;;;7.10;95.30;;;;;;5087035;28;20801;-73
2022/02/03 21:53:26;;;;;;;21.40;11.83;;;7.10;95.40;;;;;;5088087;28;20520;-72
2022/02/03 21:55:53;;;;;;;25.40;14.17;;;7.10;95.20;;;;;;5089064;28;20578;-72
2022/02/03 21:58:25;;;;;;;22.70;12.70;;;7.00;95.10;;;;;;5089681;28;20461;-73
2022/02/03 22:00:51;;;;;;;19.80;11.47;;;7.00;95.00;;;;;;5089503;28;20985;-72
2022/02/03 22:03:17;;;;;;;21.10;13.50;;;6.90;95.00;;;;;;5087382;28;20417;-73
2022/02/03 22:05:42;;;;;;;20.23;12.10;;;6.90;95.00;;;;;;5087696;28;20497;-73
2022/02/03 22:08:08;;;;;;;28.40;13.33;;;6.90;95.00;;;;;;5087511;28;20202;-73
2022/02/03 22:10:34;;;;;;;21.60;12.50;;;6.90;95.10;;;;;;5088151;28;20217;-73
2022/02/03 22:13:00;;;;;;;23.03;12.53;;;6.90;95.10;;;;;;5089444;28;20609;-73
2022/02/03 22:15:28;;;;;;;22.50;11.33;;;6.90;95.10;;;;;;5088254;28;20186;-74
2022/02/03 22:17:54;;;;;;;18.53;10.90;;;6.90;95.20;;;;;;5087063;28;20176;-72
2022/02/03 22:20:41;;;;;;;18.20;11.43;;;6.90;95.10;;;;;;5089644;28;20497;-70
2022/02/03 22:23:26;;;;;;;20.30;10.63;;;6.90;95.20;;;;;;5083299;28;20882;-71
2022/02/03 22:40:19;;;;;;;19.33;9.80;;;7.10;94.90;;;;;;5093160;28;20470;-71
2022/02/03 22:49:32;;;;;;;18.67;9.97;;;7.20;94.20;;;;;;5099281;28;20558;-73
2022/02/03 22:51:57;;;;;;;19.00;9.17;;;7.10;93.90;;;;;;5097164;28;20422;-72
2022/02/03 22:54:23;;;;;;;16.90;9.47;;;7.10;93.80;;;;;;5089387;28;20183;-69
2022/02/03 22:56:49;;;;;;;19.00;10.93;;;7.10;93.80;;;;;;5095812;28;20235;-71
2022/02/03 23:02:02;;;;;;;21.70;10.13;;;6.90;93.70;;;;;;5065613;28;20278;-72
2022/02/03 23:04:29;;;;;;;19.60;10.33;;;6.90;93.70;;;;;;5085056;28;21157;-69
2022/02/03 23:07:04;;;;;;;19.20;10.87;;;6.90;93.90;;;;;;5087879;28;20421;-70
2022/02/03 23:09:48;;;;;;;17.27;10.70;;;6.90;94.00;;;;;;5086435;28;20530;-72
2022/02/03 23:12:21;;;;;;;20.33;11.60;;;6.80;94.00;;;;;;5088028;28;20417;-73
2022/02/03 23:20:39;;;;;;;19.33;11.47;;;6.80;94.50;;;;;;5090506;28;20260;-72
2022/02/03 23:22:36;;;;;;;20.80;11.47;;;6.80;94.50;;;;;;5082665;28;20426;-69
2022/02/03 23:25:04;;;;;;;21.53;11.77;;;6.70;94.50;;;;;;5090200;28;20431;-70
2022/02/03 23:30:02;;;;;;;19.53;10.53;;;6.80;95.00;;;;;;5088010;28;20475;-71
2022/02/03 23:32:30;;;;;;;21.47;11.77;;;6.80;95.10;;;;;;5087427;28;20422;-72
2022/02/03 23:35:16;;;;;;;16.47;9.40;;;6.80;95.10;;;;;;5087653;28;20425;-72
2022/02/03 23:37:45;;;;;;;19.90;10.33;;;6.80;95.00;;;;;;5087816;28;20901;-72
2022/02/03 23:40:17;;;;;;;19.03;10.47;;;6.90;95.00;;;;;;5090673;28;20452;-71
